sensor_id;sensor_type;location;lat;lon;timestamp;pressure;altitude;pressure_sealevel;temperature
47484;BMP280;54076;50.322;18.650;2024-02-21T00:02:40;99553.66;;;8.84
47484;BMP280;54076;50.322;18.650;2024-02-21T00:07:41;99552.36;;;8.66
47484;BMP280;54076;50.322;18.650;2024-02-21T00:12:42;99550.63;;;8.75
47484;BMP280;54076;50.322;18.650;2024-02-21T00:17:44;99544.02;;;8.68
47484;BMP280;54076;50.322;18.650;2024-02-21T00:22:45;99545.60;;;8.59
47484;BMP280;54076;50.322;18.650;2024-02-21T00:27:47;99543.90;;;8.65
47484;BMP280;54076;50.322;18.650;2024-02-21T00:32:48;99538.95;;;8.65
47484;BMP280;54076;50.322;18.650;2024-02-21T00:37:49;99530.55;;;8.31
47484;BMP280;54076;50.322;18.650;2024-02-21T00:42:50;99524.09;;;8.27
47484;BMP280;54076;50.322;18.650;2024-02-21T00:47:51;99512.90;;;8.33
47484;BMP280;54076;50.322;18.650;2024-02-21T00:52:52;99514.42;;;8.47
47484;BMP280;54076;50.322;18.650;2024-02-21T00:57:53;99515.63;;;8.45
47484;BMP280;54076;50.322;18.650;2024-02-21T01:02:54;99517.74;;;8.51
47484;BMP280;54076;50.322;18.650;2024-02-21T01:07:55;99515.52;;;8.47
47484;BMP280;54076;50.322;18.650;2024-02-21T01:12:56;99511.98;;;8.39
47484;BMP280;54076;50.322;18.650;2024-02-21T01:17:57;99507.76;;;8.48
47484;BMP280;54076;50.322;18.650;2024-02-21T01:22:59;99501.87;;;8.48
47484;BMP280;54076;50.322;18.650;2024-02-21T01:28:00;99493.41;;;8.32
47484;BMP280;54076;50.322;18.650;2024-02-21T01:33:01;99492.86;;;8.19
47484;BMP280;54076;50.322;18.650;2024-02-21T01:38:02;99487.54;;;8.29
47484;BMP280;54076;50.322;18.650;2024-02-21T01:43:03;99479.08;;;8.18
47484;BMP280;54076;50.322;18.650;2024-02-21T01:48:05;99472.44;;;8.13
47484;BMP280;54076;50.322;18.650;2024-02-21T01:53:07;99478.32;;;8.49
47484;BMP280;54076;50.322;18.650;2024-02-21T01:58:09;99471.60;;;8.50
47484;BMP280;54076;50.322;18.650;2024-02-21T02:03:11;99466.35;;;8.52
47484;BMP280;54076;50.322;18.650;2024-02-21T02:08:19;99459.69;;;8.38
47484;BMP280;54076;50.322;18.650;2024-02-21T02:13:23;99457.30;;;8.28
47484;BMP280;54076;50.322;18.650;2024-02-21T02:18:24;99457.64;;;8.38
47484;BMP280;54076;50.322;18.650;2024-02-21T02:28:27;99457.23;;;8.14
47484;BMP280;54076;50.322;18.650;2024-02-21T02:33:28;99455.05;;;8.12
47484;BMP280;54076;50.322;18.650;2024-02-21T02:38:32;99450.09;;;8.00
47484;BMP280;54076;50.322;18.650;2024-02-21T02:43:33;99439.67;;;8.06
47484;BMP280;54076;50.322;18.650;2024-02-21T02:48:34;99432.63;;;7.86
47484;BMP280;54076;50.322;18.650;2024-02-21T02:53:36;99428.47;;;8.07
47484;BMP280;54076;50.322;18.650;2024-02-21T02:58:37;99428.09;;;8.07
47484;BMP280;54076;50.322;18.650;2024-02-21T03:03:38;99425.06;;;8.18
47484;BMP280;54076;50.322;18.650;2024-02-21T03:08:42;99425.66;;;8.14
47484;BMP280;54076;50.322;18.650;2024-02-21T03:13:43;99420.92;;;8.14
47484;BMP280;54076;50.322;18.650;2024-02-21T03:18:44;99418.65;;;8.19
47484;BMP280;54076;50.322;18.650;2024-02-21T03:23:45;99417.18;;;8.19
47484;BMP280;54076;50.322;18.650;2024-02-21T03:28:47;99410.80;;;8.09
47484;BMP280;54076;50.322;18.650;2024-02-21T03:33:49;99415.25;;;8.12
47484;BMP280;54076;50.322;18.650;2024-02-21T03:38:50;99413.64;;;8.14
47484;BMP280;54076;50.322;18.650;2024-02-21T03:43:51;99414.52;;;8.08
47484;BMP280;54076;50.322;18.650;2024-02-21T03:48:52;99410.71;;;8.19
47484;BMP280;54076;50.322;18.650;2024-02-21T03:53:53;99413.27;;;8.18
47484;BMP280;54076;50.322;18.650;2024-02-21T03:58:55;99412.73;;;8.05
47484;BMP280;54076;50.322;18.650;2024-02-21T04:03:56;99417.83;;;8.10
47484;BMP280;54076;50.322;18.650;2024-02-21T04:08:57;99416.24;;;8.08
47484;BMP280;54076;50.322;18.650;2024-02-21T04:13:59;99412.77;;;8.15
47484;BMP280;54076;50.322;18.650;2024-02-21T04:19:00;99407.29;;;8.09
47484;BMP280;54076;50.322;18.650;2024-02-21T04:24:03;99405.66;;;8.16
47484;BMP280;54076;50.322;18.650;2024-02-21T04:29:06;99395.35;;;8.14
47484;BMP280;54076;50.322;18.650;2024-02-21T04:34:07;99391.81;;;8.18
47484;BMP280;54076;50.322;18.650;2024-02-21T04:39:08;99390.06;;;8.14
47484;BMP280;54076;50.322;18.650;2024-02-21T04:44:09;99385.16;;;8.17
47484;BMP280;54076;50.322;18.650;2024-02-21T04:49:10;99378.70;;;8.16
47484;BMP280;54076;50.322;18.650;2024-02-21T04:54:11;99378.75;;;8.21
47484;BMP280;54076;50.322;18.650;2024-02-21T04:59:12;99377.02;;;8.20
47484;BMP280;54076;50.322;18.650;2024-02-21T05:04:14;99370.65;;;8.28
47484;BMP280;54076;50.322;18.650;2024-02-21T05:09:15;99362.83;;;8.31
47484;BMP280;54076;50.322;18.650;2024-02-21T05:14:16;99361.03;;;8.28
47484;BMP280;54076;50.322;18.650;2024-02-21T05:19:17;99360.83;;;8.38
47484;BMP280;54076;50.322;18.650;2024-02-21T05:24:19;99363.53;;;8.32
47484;BMP280;54076;50.322;18.650;2024-02-21T05:29:26;99360.83;;;8.40
47484;BMP280;54076;50.322;18.650;2024-02-21T05:34:27;99361.48;;;8.38
47484;BMP280;54076;50.322;18.650;2024-02-21T05:39:28;99363.93;;;8.47
47484;BMP280;54076;50.322;18.650;2024-02-21T05:44:30;99362.75;;;8.43
47484;BMP280;54076;50.322;18.650;2024-02-21T05:49:30;99363.42;;;8.31
47484;BMP280;54076;50.322;18.650;2024-02-21T05:54:31;99358.30;;;8.32
47484;BMP280;54076;50.322;18.650;2024-02-21T05:59:33;99357.10;;;8.35
47484;BMP280;54076;50.322;18.650;2024-02-21T06:04:34;99351.52;;;8.35
47484;BMP280;54076;50.322;18.650;2024-02-21T06:09:35;99350.86;;;8.27
47484;BMP280;54076;50.322;18.650;2024-02-21T06:14:36;99352.36;;;8.50
47484;BMP280;54076;50.322;18.650;2024-02-21T06:19:41;99351.52;;;8.50
47484;BMP280;54076;50.322;18.650;2024-02-21T06:24:43;99357.36;;;8.50
47484;BMP280;54076;50.322;18.650;2024-02-21T06:29:44;99356.99;;;8.60
47484;BMP280;54076;50.322;18.650;2024-02-21T06:34:45;99350.80;;;8.54
47484;BMP280;54076;50.322;18.650;2024-02-21T06:39:46;99346.67;;;8.60
47484;BMP280;54076;50.322;18.650;2024-02-21T06:44:47;99342.13;;;8.73
47484;BMP280;54076;50.322;18.650;2024-02-21T06:49:49;99338.30;;;8.58
47484;BMP280;54076;50.322;18.650;2024-02-21T06:54:51;99341.38;;;8.66
47484;BMP280;54076;50.322;18.650;2024-02-21T06:59:52;99343.16;;;8.64
47484;BMP280;54076;50.322;18.650;2024-02-21T07:04:53;99345.29;;;8.65
47484;BMP280;54076;50.322;18.650;2024-02-21T07:09:54;99345.58;;;8.83
47484;BMP280;54076;50.322;18.650;2024-02-21T07:14:55;99349.00;;;8.70
47484;BMP280;54076;50.322;18.650;2024-02-21T07:19:56;99344.73;;;8.74
47484;BMP280;54076;50.322;18.650;2024-02-21T07:24:59;99340.63;;;8.87
47484;BMP280;54076;50.322;18.650;2024-02-21T07:30:00;99336.41;;;8.79
47484;BMP280;54076;50.322;18.650;2024-02-21T07:35:01;99332.27;;;8.95
47484;BMP280;54076;50.322;18.650;2024-02-21T07:40:06;99331.97;;;8.96
47484;BMP280;54076;50.322;18.650;2024-02-21T07:45:08;99327.45;;;9.08
47484;BMP280;54076;50.322;18.650;2024-02-21T07:50:10;99324.13;;;9.16
47484;BMP280;54076;50.322;18.650;2024-02-21T07:55:11;99312.64;;;9.47
47484;BMP280;54076;50.322;18.650;2024-02-21T08:00:12;99307.73;;;9.51
47484;BMP280;54076;50.322;18.650;2024-02-21T08:05:20;99314.52;;;9.32
47484;BMP280;54076;50.322;18.650;2024-02-21T08:10:21;99310.40;;;9.27
47484;BMP280;54076;50.322;18.650;2024-02-21T08:15:22;99306.54;;;9.35
47484;BMP280;54076;50.322;18.650;2024-02-21T08:20:26;99296.13;;;9.25
47484;BMP280;54076;50.322;18.650;2024-02-21T08:25:27;99282.69;;;9.14
47484;BMP280;54076;50.322;18.650;2024-02-21T08:30:28;99281.69;;;9.29
47484;BMP280;54076;50.322;18.650;2024-02-21T08:35:29;99280.34;;;9.64
47484;BMP280;54076;50.322;18.650;2024-02-21T08:40:30;99264.19;;;11.32
47484;BMP280;54076;50.322;18.650;2024-02-21T08:45:31;99258.00;;;11.49
47484;BMP280;54076;50.322;18.650;2024-02-21T08:50:32;99259.05;;;10.49
47484;BMP280;54076;50.322;18.650;2024-02-21T08:55:32;99255.52;;;9.97
47484;BMP280;54076;50.322;18.650;2024-02-21T09:00:34;99249.25;;;10.11
47484;BMP280;54076;50.322;18.650;2024-02-21T09:05:34;99245.40;;;10.58
47484;BMP280;54076;50.322;18.650;2024-02-21T09:10:35;99254.10;;;10.57
47484;BMP280;54076;50.322;18.650;2024-02-21T09:15:36;99249.45;;;10.64
47484;BMP280;54076;50.322;18.650;2024-02-21T09:20:37;99253.39;;;10.92
47484;BMP280;54076;50.322;18.650;2024-02-21T09:25:38;99263.56;;;10.58
47484;BMP280;54076;50.322;18.650;2024-02-21T09:30:40;99258.74;;;10.56
47484;BMP280;54076;50.322;18.650;2024-02-21T09:35:41;99259.28;;;10.82
47484;BMP280;54076;50.322;18.650;2024-02-21T09:40:42;99259.58;;;10.86
47484;BMP280;54076;50.322;18.650;2024-02-21T09:45:46;99253.08;;;11.50
47484;BMP280;54076;50.322;18.650;2024-02-21T09:50:49;99250.48;;;11.41
47484;BMP280;54076;50.322;18.650;2024-02-21T09:55:51;99246.21;;;11.41
47484;BMP280;54076;50.322;18.650;2024-02-21T10:00:53;99245.41;;;11.22
47484;BMP280;54076;50.322;18.650;2024-02-21T10:05:54;99251.67;;;11.37
47484;BMP280;54076;50.322;18.650;2024-02-21T10:10:55;99254.80;;;11.44
47484;BMP280;54076;50.322;18.650;2024-02-21T10:16:07;99253.96;;;11.26
47484;BMP280;54076;50.322;18.650;2024-02-21T10:21:09;99246.45;;;11.58
47484;BMP280;54076;50.322;18.650;2024-02-21T10:26:10;99246.27;;;11.69
47484;BMP280;54076;50.322;18.650;2024-02-21T10:31:21;99241.71;;;11.93
47484;BMP280;54076;50.322;18.650;2024-02-21T10:36:23;99236.90;;;11.65
47484;BMP280;54076;50.322;18.650;2024-02-21T10:41:28;99231.30;;;11.60
47484;BMP280;54076;50.322;18.650;2024-02-21T10:46:30;99233.30;;;11.82
47484;BMP280;54076;50.322;18.650;2024-02-21T10:51:34;99226.88;;;11.79
47484;BMP280;54076;50.322;18.650;2024-02-21T10:56:38;99222.80;;;11.79
47484;BMP280;54076;50.322;18.650;2024-02-21T11:01:40;99214.52;;;11.93
47484;BMP280;54076;50.322;18.650;2024-02-21T11:06:41;99207.07;;;11.64
47484;BMP280;54076;50.322;18.650;2024-02-21T11:11:44;99197.17;;;11.44
47484;BMP280;54076;50.322;18.650;2024-02-21T11:16:46;99189.70;;;11.65
47484;BMP280;54076;50.322;18.650;2024-02-21T11:21:47;99188.40;;;11.56
47484;BMP280;54076;50.322;18.650;2024-02-21T11:26:49;99179.91;;;11.45
47484;BMP280;54076;50.322;18.650;2024-02-21T11:31:50;99176.02;;;11.47
47484;BMP280;54076;50.322;18.650;2024-02-21T11:36:52;99173.05;;;11.42
47484;BMP280;54076;50.322;18.650;2024-02-21T11:42:07;99172.59;;;11.27
47484;BMP280;54076;50.322;18.650;2024-02-21T11:47:09;99170.98;;;11.17
47484;BMP280;54076;50.322;18.650;2024-02-21T11:52:10;99161.56;;;11.05
47484;BMP280;54076;50.322;18.650;2024-02-21T11:57:11;99162.80;;;10.90
47484;BMP280;54076;50.322;18.650;2024-02-21T12:02:14;99162.92;;;10.78
47484;BMP280;54076;50.322;18.650;2024-02-21T12:07:14;99162.05;;;10.78
47484;BMP280;54076;50.322;18.650;2024-02-21T12:12:20;99153.31;;;10.90
47484;BMP280;54076;50.322;18.650;2024-02-21T12:17:21;99142.11;;;10.88
47484;BMP280;54076;50.322;18.650;2024-02-21T12:22:22;99142.15;;;10.92
47484;BMP280;54076;50.322;18.650;2024-02-21T12:27:23;99140.31;;;10.97
47484;BMP280;54076;50.322;18.650;2024-02-21T12:32:25;99140.23;;;11.06
47484;BMP280;54076;50.322;18.650;2024-02-21T12:37:26;99140.73;;;10.98
47484;BMP280;54076;50.322;18.650;2024-02-21T12:42:27;99128.64;;;11.15
47484;BMP280;54076;50.322;18.650;2024-02-21T12:47:29;99122.60;;;11.09
47484;BMP280;54076;50.322;18.650;2024-02-21T12:52:30;99115.91;;;11.39
47484;BMP280;54076;50.322;18.650;2024-02-21T12:57:32;99104.00;;;11.42
47484;BMP280;54076;50.322;18.650;2024-02-21T13:02:32;99090.08;;;11.29
47484;BMP280;54076;50.322;18.650;2024-02-21T13:07:34;99082.56;;;11.36
47484;BMP280;54076;50.322;18.650;2024-02-21T13:12:34;99072.25;;;11.25
47484;BMP280;54076;50.322;18.650;2024-02-21T13:17:35;99067.87;;;11.38
47484;BMP280;54076;50.322;18.650;2024-02-21T13:22:37;99061.60;;;11.46
47484;BMP280;54076;50.322;18.650;2024-02-21T13:27:38;99061.66;;;11.42
47484;BMP280;54076;50.322;18.650;2024-02-21T13:32:39;99062.74;;;11.49
47484;BMP280;54076;50.322;18.650;2024-02-21T13:37:41;99062.59;;;11.06
47484;BMP280;54076;50.322;18.650;2024-02-21T13:42:42;99066.02;;;11.07
47484;BMP280;54076;50.322;18.650;2024-02-21T13:47:44;99061.30;;;11.03
47484;BMP280;54076;50.322;18.650;2024-02-21T13:52:44;99052.77;;;10.87
47484;BMP280;54076;50.322;18.650;2024-02-21T13:57:45;99038.69;;;10.98
47484;BMP280;54076;50.322;18.650;2024-02-21T14:02:46;99029.98;;;11.13
47484;BMP280;54076;50.322;18.650;2024-02-21T14:07:47;99015.59;;;11.15
47484;BMP280;54076;50.322;18.650;2024-02-21T14:12:48;99005.07;;;11.22
47484;BMP280;54076;50.322;18.650;2024-02-21T14:17:49;98997.19;;;11.21
47484;BMP280;54076;50.322;18.650;2024-02-21T14:22:50;98990.23;;;11.22
47484;BMP280;54076;50.322;18.650;2024-02-21T14:27:51;98973.99;;;11.18
47484;BMP280;54076;50.322;18.650;2024-02-21T14:32:52;98968.98;;;11.34
47484;BMP280;54076;50.322;18.650;2024-02-21T14:37:53;98965.27;;;11.62
47484;BMP280;54076;50.322;18.650;2024-02-21T14:42:57;98970.63;;;11.49
47484;BMP280;54076;50.322;18.650;2024-02-21T14:47:58;98971.78;;;11.26
47484;BMP280;54076;50.322;18.650;2024-02-21T14:52:59;98964.14;;;11.10
47484;BMP280;54076;50.322;18.650;2024-02-21T14:58:00;98966.12;;;11.33
47484;BMP280;54076;50.322;18.650;2024-02-21T15:03:01;98973.71;;;11.14
47484;BMP280;54076;50.322;18.650;2024-02-21T15:08:04;98960.77;;;11.31
47484;BMP280;54076;50.322;18.650;2024-02-21T15:13:04;98955.69;;;11.37
47484;BMP280;54076;50.322;18.650;2024-02-21T15:18:06;98953.29;;;11.34
47484;BMP280;54076;50.322;18.650;2024-02-21T15:23:07;98950.55;;;11.24
47484;BMP280;54076;50.322;18.650;2024-02-21T15:28:08;98945.27;;;10.92
47484;BMP280;54076;50.322;18.650;2024-02-21T15:33:09;98934.13;;;10.72
47484;BMP280;54076;50.322;18.650;2024-02-21T15:38:10;98926.80;;;10.78
47484;BMP280;54076;50.322;18.650;2024-02-21T15:43:11;98924.51;;;10.62
47484;BMP280;54076;50.322;18.650;2024-02-21T15:48:12;98926.08;;;10.63
47484;BMP280;54076;50.322;18.650;2024-02-21T15:53:14;98913.89;;;10.57
47484;BMP280;54076;50.322;18.650;2024-02-21T15:58:15;98907.21;;;10.64
47484;BMP280;54076;50.322;18.650;2024-02-21T16:03:16;98905.67;;;10.56
47484;BMP280;54076;50.322;18.650;2024-02-21T16:08:17;98917.36;;;10.53
47484;BMP280;54076;50.322;18.650;2024-02-21T16:13:19;98922.30;;;10.59
47484;BMP280;54076;50.322;18.650;2024-02-21T16:18:20;98908.02;;;10.44
47484;BMP280;54076;50.322;18.650;2024-02-21T16:23:21;98907.05;;;10.41
47484;BMP280;54076;50.322;18.650;2024-02-21T16:28:23;98906.81;;;10.48
47484;BMP280;54076;50.322;18.650;2024-02-21T16:33:25;98907.86;;;10.37
47484;BMP280;54076;50.322;18.650;2024-02-21T16:38:26;98903.87;;;10.26
47484;BMP280;54076;50.322;18.650;2024-02-21T16:43:27;98899.13;;;10.22
47484;BMP280;54076;50.322;18.650;2024-02-21T16:48:30;98895.77;;;10.30
47484;BMP280;54076;50.322;18.650;2024-02-21T16:53:31;98889.55;;;10.16
47484;BMP280;54076;50.322;18.650;2024-02-21T16:58:33;98896.77;;;10.12
47484;BMP280;54076;50.322;18.650;2024-02-21T17:03:37;98896.24;;;10.02
47484;BMP280;54076;50.322;18.650;2024-02-21T17:08:38;98888.23;;;10.10
47484;BMP280;54076;50.322;18.650;2024-02-21T17:13:41;98894.91;;;10.09
47484;BMP280;54076;50.322;18.650;2024-02-21T17:18:42;98907.64;;;9.87
47484;BMP280;54076;50.322;18.650;2024-02-21T17:23:43;98907.52;;;9.87
47484;BMP280;54076;50.322;18.650;2024-02-21T17:28:44;98898.55;;;9.69
47484;BMP280;54076;50.322;18.650;2024-02-21T17:33:45;98892.82;;;9.72
47484;BMP280;54076;50.322;18.650;2024-02-21T17:38:46;98885.02;;;9.63
47484;BMP280;54076;50.322;18.650;2024-02-21T17:43:49;98878.00;;;9.59
47484;BMP280;54076;50.322;18.650;2024-02-21T17:48:49;98874.79;;;9.46
47484;BMP280;54076;50.322;18.650;2024-02-21T17:53:50;98869.48;;;9.44
47484;BMP280;54076;50.322;18.650;2024-02-21T17:58:51;98869.31;;;9.48
47484;BMP280;54076;50.322;18.650;2024-02-21T18:03:52;98871.39;;;9.46
47484;BMP280;54076;50.322;18.650;2024-02-21T18:08:53;98863.93;;;9.38
47484;BMP280;54076;50.322;18.650;2024-02-21T18:13:57;98857.77;;;9.34
47484;BMP280;54076;50.322;18.650;2024-02-21T18:19:00;98858.09;;;9.29
47484;BMP280;54076;50.322;18.650;2024-02-21T18:24:01;98852.98;;;9.29
47484;BMP280;54076;50.322;18.650;2024-02-21T18:29:02;98840.95;;;9.29
47484;BMP280;54076;50.322;18.650;2024-02-21T18:34:03;98831.23;;;9.27
47484;BMP280;54076;50.322;18.650;2024-02-21T18:39:04;98825.18;;;9.25
47484;BMP280;54076;50.322;18.650;2024-02-21T18:44:06;98817.18;;;9.28
47484;BMP280;54076;50.322;18.650;2024-02-21T18:49:07;98804.59;;;9.20
47484;BMP280;54076;50.322;18.650;2024-02-21T18:54:10;98799.23;;;9.19
47484;BMP280;54076;50.322;18.650;2024-02-21T18:59:11;98800.85;;;9.22
47484;BMP280;54076;50.322;18.650;2024-02-21T19:04:12;98801.92;;;9.24
47484;BMP280;54076;50.322;18.650;2024-02-21T19:09:13;98799.29;;;9.15
47484;BMP280;54076;50.322;18.650;2024-02-21T19:14:14;98798.16;;;9.05
47484;BMP280;54076;50.322;18.650;2024-02-21T19:19:15;98792.30;;;9.07
47484;BMP280;54076;50.322;18.650;2024-02-21T19:24:16;98787.76;;;9.09
47484;BMP280;54076;50.322;18.650;2024-02-21T19:29:17;98788.68;;;9.02
47484;BMP280;54076;50.322;18.650;2024-02-21T19:34:18;98783.91;;;9.03
47484;BMP280;54076;50.322;18.650;2024-02-21T19:39:19;98778.27;;;9.00
47484;BMP280;54076;50.322;18.650;2024-02-21T19:44:20;98771.39;;;9.07
47484;BMP280;54076;50.322;18.650;2024-02-21T19:49:23;98765.86;;;8.85
47484;BMP280;54076;50.322;18.650;2024-02-21T19:54:24;98764.70;;;8.90
47484;BMP280;54076;50.322;18.650;2024-02-21T19:59:25;98762.51;;;8.86
47484;BMP280;54076;50.322;18.650;2024-02-21T20:04:27;98757.59;;;8.83
47484;BMP280;54076;50.322;18.650;2024-02-21T20:09:28;98749.38;;;8.82
47484;BMP280;54076;50.322;18.650;2024-02-21T20:14:29;98741.10;;;8.84
47484;BMP280;54076;50.322;18.650;2024-02-21T20:19:30;98731.92;;;8.83
47484;BMP280;54076;50.322;18.650;2024-02-21T20:24:31;98726.84;;;8.75
47484;BMP280;54076;50.322;18.650;2024-02-21T20:29:32;98722.52;;;8.81
47484;BMP280;54076;50.322;18.650;2024-02-21T20:34:34;98711.96;;;8.93
47484;BMP280;54076;50.322;18.650;2024-02-21T20:39:34;98707.96;;;8.90
47484;BMP280;54076;50.322;18.650;2024-02-21T20:44:36;98711.40;;;8.92
47484;BMP280;54076;50.322;18.650;2024-02-21T20:49:37;98715.34;;;8.87
47484;BMP280;54076;50.322;18.650;2024-02-21T20:54:37;98711.72;;;8.90
47484;BMP280;54076;50.322;18.650;2024-02-21T20:59:38;98704.67;;;8.80
47484;BMP280;54076;50.322;18.650;2024-02-21T21:04:39;98697.77;;;8.88
47484;BMP280;54076;50.322;18.650;2024-02-21T21:09:41;98691.64;;;8.93
47484;BMP280;54076;50.322;18.650;2024-02-21T21:14:42;98684.38;;;8.92
47484;BMP280;54076;50.322;18.650;2024-02-21T21:19:43;98677.42;;;8.93
47484;BMP280;54076;50.322;18.650;2024-02-21T21:24:45;98662.33;;;8.88
47484;BMP280;54076;50.322;18.650;2024-02-21T21:29:46;98656.71;;;8.90
47484;BMP280;54076;50.322;18.650;2024-02-21T21:34:49;98644.33;;;8.90
47484;BMP280;54076;50.322;18.650;2024-02-21T21:39:50;98629.49;;;9.01
47484;BMP280;54076;50.322;18.650;2024-02-21T21:44:55;98623.66;;;8.99
47484;BMP280;54076;50.322;18.650;2024-02-21T21:49:56;98615.67;;;8.94
47484;BMP280;54076;50.322;18.650;2024-02-21T21:54:57;98602.90;;;9.02
47484;BMP280;54076;50.322;18.650;2024-02-21T21:59:59;98585.33;;;8.97
47484;BMP280;54076;50.322;18.650;2024-02-21T22:05:00;98576.54;;;8.78
47484;BMP280;54076;50.322;18.650;2024-02-21T22:10:02;98569.98;;;8.98
47484;BMP280;54076;50.322;18.650;2024-02-21T22:15:04;98561.59;;;8.96
47484;BMP280;54076;50.322;18.650;2024-02-21T22:20:06;98560.21;;;9.04
47484;BMP280;54076;50.322;18.650;2024-02-21T22:25:08;98553.13;;;9.01
47484;BMP280;54076;50.322;18.650;2024-02-21T22:30:10;98545.95;;;9.07
47484;BMP280;54076;50.322;18.650;2024-02-21T22:35:11;98537.98;;;9.02
47484;BMP280;54076;50.322;18.650;2024-02-21T22:40:12;98527.80;;;9.08
47484;BMP280;54076;50.322;18.650;2024-02-21T22:45:16;98525.46;;;9.07
47484;BMP280;54076;50.322;18.650;2024-02-21T22:50:17;98513.94;;;8.99
47484;BMP280;54076;50.322;18.650;2024-02-21T22:55:18;98509.08;;;8.93
47484;BMP280;54076;50.322;18.650;2024-02-21T23:00:19;98508.16;;;8.95
47484;BMP280;54076;50.322;18.650;2024-02-21T23:05:21;98502.57;;;8.83
47484;BMP280;54076;50.322;18.650;2024-02-21T23:10:25;98491.63;;;8.89
47484;BMP280;54076;50.322;18.650;2024-02-21T23:15:27;98487.95;;;8.94
47484;BMP280;54076;50.322;18.650;2024-02-21T23:20:28;98486.11;;;8.84
47484;BMP280;54076;50.322;18.650;2024-02-21T23:25:30;98484.78;;;8.85
47484;BMP280;54076;50.322;18.650;2024-02-21T23:30:32;98478.97;;;8.85
47484;BMP280;54076;50.322;18.650;2024-02-21T23:35:33;98467.36;;;8.87
47484;BMP280;54076;50.322;18.650;2024-02-21T23:40:34;98465.71;;;8.91
47484;BMP280;54076;50.322;18.650;2024-02-21T23:45:35;98451.47;;;8.90
47484;BMP280;54076;50.322;18.650;2024-02-21T23:50:36;98447.45;;;8.88
47484;BMP280;54076;50.322;18.650;2024-02-21T23:55:37;98436.69;;;8.91
